Time;durP1;ratioP1;P1;durP2;ratioP2;P2;SDS_P1;SDS_P2;PMS_P1;PMS_P2;Temp;Humidity;BMP_temperature;BMP_pressure;BME280_temperature;BME280_humidity;BME280_pressure;Samples;Min_cycle;Max_cycle;Signal;HPM_P1;HPM_P2
2022/08/31 00:05:36;;;;;;;0.30;0.30;;;;;;;11.59;59.05;101707.81;5127782;28;20046;-77
2022/08/31 00:08:02;;;;;;;0.40;0.40;;;;;;;11.60;59.24;101716.47;5127552;28;20016;-77
2022/08/31 00:10:28;;;;;;;0.40;0.40;;;;;;;11.57;59.23;101709.53;5127423;28;20033;-77
2022/08/31 00:12:53;;;;;;;0.30;0.30;;;;;;;11.59;59.35;101718.22;5109193;28;20046;-77
2022/08/31 00:15:22;;;;;;;0.40;0.40;;;;;;;11.58;59.43;101720.81;5127533;28;20483;-78
2022/08/31 00:17:47;;;;;;;0.30;0.30;;;;;;;11.59;59.81;101719.94;5127612;28;20073;-77
2022/08/31 00:20:15;;;;;;;0.32;0.32;;;;;;;11.56;60.12;101728.59;5127630;28;20023;-77
2022/08/31 00:22:40;;;;;;;0.40;0.40;;;;;;;11.52;60.40;101716.41;5127337;28;20049;-78
2022/08/31 00:25:07;;;;;;;0.40;0.40;;;;;;;11.53;60.34;101725.97;5127193;28;20027;-77
2022/08/31 00:27:32;;;;;;;0.40;0.40;;;;;;;11.50;60.81;101723.34;5127326;28;20027;-77
2022/08/31 00:29:57;;;;;;;0.38;0.38;;;;;;;11.49;60.78;101725.06;5127254;28;20038;-77
2022/08/31 00:32:23;;;;;;;0.40;0.40;;;;;;;11.47;60.94;101733.72;5127314;28;20056;-77
2022/08/31 00:34:48;;;;;;;0.40;0.40;;;;;;;11.41;61.28;101724.13;5127057;28;20020;-75
2022/08/31 00:37:13;;;;;;;0.40;0.40;;;;;;;11.38;61.02;101726.69;5127233;28;20055;-77
2022/08/31 00:39:39;;;;;;;0.40;0.40;;;;;;;11.41;61.09;101731.91;5126749;28;20051;-76
2022/08/31 00:42:06;;;;;;;0.30;0.30;;;;;;;11.37;61.32;101718.00;5126853;28;20039;-76
2022/08/31 00:44:32;;;;;;;0.40;0.40;;;;;;;11.34;61.12;101717.97;5126596;28;20024;-76
2022/08/31 00:46:57;;;;;;;0.40;0.40;;;;;;;11.35;61.42;101726.66;5108642;28;20149;-77
2022/08/31 00:49:30;;;;;;;0.40;0.40;;;;;;;11.33;61.34;101723.16;5108669;28;20026;-77
2022/08/31 00:52:09;;;;;;;0.30;0.30;;;;;;;11.28;61.38;101721.41;5126620;28;20024;-76
2022/08/31 00:54:39;;;;;;;0.40;0.40;;;;;;;11.31;61.75;101724.91;5126608;28;20459;-78
2022/08/31 00:57:07;;;;;;;0.40;0.40;;;;;;;11.26;61.85;101725.72;5126708;28;20037;-78
2022/08/31 00:59:33;;;;;;;0.38;0.38;;;;;;;11.22;62.04;101728.25;5108488;28;20435;-78
2022/08/31 01:01:59;;;;;;;0.40;0.40;;;;;;;11.20;62.15;101722.19;5126547;28;20046;-76
2022/08/31 01:04:25;;;;;;;0.30;0.30;;;;;;;11.22;62.20;101729.16;5108129;28;20022;-77
2022/08/31 01:06:51;;;;;;;0.40;0.40;;;;;;;11.22;62.26;101736.06;5126458;28;20059;-76
2022/08/31 01:09:20;;;;;;;0.30;0.30;;;;;;;11.15;62.27;101725.59;5126177;28;20140;-77
2022/08/31 01:11:46;;;;;;;0.40;0.40;;;;;;;11.21;62.14;101731.72;5126589;28;20066;-76
2022/08/31 01:14:12;;;;;;;0.40;0.40;;;;;;;11.17;62.24;101727.38;5107851;28;20020;-76
2022/08/31 01:16:42;;;;;;;0.30;0.30;;;;;;;11.17;62.36;101741.22;5108133;28;20030;-77
2022/08/31 01:19:18;;;;;;;0.30;0.30;;;;;;;11.15;61.94;101729.91;5107991;28;20035;-77
2022/08/31 01:21:58;;;;;;;0.40;0.40;;;;;;;11.14;62.40;101729.06;5126506;28;20020;-78
2022/08/31 01:24:26;;;;;;;0.40;0.40;;;;;;;11.19;62.23;101729.13;5126149;28;20020;-78
2022/08/31 01:26:53;;;;;;;0.40;0.40;;;;;;;11.16;62.17;101731.69;5126373;28;20383;-77
2022/08/31 01:29:18;;;;;;;0.35;0.35;;;;;;;11.20;62.17;101746.44;5126323;28;20066;-77
2022/08/31 01:31:46;;;;;;;0.35;0.35;;;;;;;11.20;62.29;101749.03;5126156;28;20020;-77
2022/08/31 01:34:11;;;;;;;0.40;0.40;;;;;;;11.15;62.15;101735.13;5125864;28;20029;-77
2022/08/31 01:36:39;;;;;;;0.40;0.40;;;;;;;11.17;62.31;101746.41;5126214;28;20047;-78
2022/08/31 01:39:07;;;;;;;0.40;0.40;;;;;;;11.21;62.14;101742.13;5125874;28;20034;-77
2022/08/31 01:41:34;;;;;;;0.30;0.30;;;;;;;11.21;62.03;101748.22;5126120;28;20019;-77
2022/08/31 01:44:00;;;;;;;0.40;0.40;;;;;;;11.19;62.28;101747.31;5109625;28;20039;-77
2022/08/31 01:46:25;;;;;;;0.40;0.40;;;;;;;11.26;62.16;101750.84;5126210;28;20063;-77
2022/08/31 01:48:51;;;;;;;0.40;0.40;;;;;;;11.29;62.18;101758.69;5126435;28;20471;-78
2022/08/31 01:51:19;;;;;;;0.40;0.40;;;;;;;11.30;62.03;101752.63;5133472;28;20037;-77
2022/08/31 01:53:47;;;;;;;0.40;0.40;;;;;;;11.28;62.08;101738.72;5138033;28;20031;-77
2022/08/31 01:56:25;;;;;;;0.40;0.40;;;;;;;11.33;62.14;101752.66;5120390;28;20000;-77
2022/08/31 01:58:51;;;;;;;0.30;0.30;;;;;;;11.32;62.26;101753.50;5131544;28;20062;-77
2022/08/31 02:01:17;;;;;;;0.40;0.40;;;;;;;11.29;62.45;101745.69;5126157;28;20383;-75
2022/08/31 02:03:42;;;;;;;0.40;0.40;;;;;;;11.31;62.16;101749.16;5125916;28;20092;-78
2022/08/31 02:06:10;;;;;;;0.40;0.40;;;;;;;11.35;62.20;101750.94;5125791;28;20551;-78
2022/08/31 02:08:36;;;;;;;0.40;0.40;;;;;;;11.38;62.19;101756.16;5125841;28;20028;-78
2022/08/31 02:11:03;;;;;;;0.40;0.40;;;;;;;11.34;62.42;101751.78;5126171;28;20062;-78
2022/08/31 02:13:28;;;;;;;0.30;0.30;;;;;;;11.34;62.21;101749.19;5107574;28;20036;-77
2022/08/31 02:15:53;;;;;;;0.40;0.40;;;;;;;11.32;62.34;101739.63;5125701;28;20540;-79
2022/08/31 02:18:19;;;;;;;0.30;0.30;;;;;;;11.30;62.78;101755.22;5125666;28;20049;-77
2022/08/31 02:20:44;;;;;;;0.40;0.40;;;;;;;11.25;63.08;101754.28;5107454;28;20028;-77
2022/08/31 02:23:10;;;;;;;0.30;0.30;;;;;;;11.20;62.98;101741.25;5107423;28;20410;-78
2022/08/31 02:25:35;;;;;;;0.30;0.30;;;;;;;11.22;62.96;101747.34;5125408;28;20049;-78
2022/08/31 02:28:01;;;;;;;0.40;0.40;;;;;;;11.23;62.95;101751.66;5107430;28;20023;-77
2022/08/31 02:30:26;;;;;;;0.40;0.40;;;;;;;11.19;63.03;101752.50;5125817;28;20107;-78
2022/08/31 02:32:52;;;;;;;0.30;0.30;;;;;;;11.08;62.91;101733.31;5125564;28;20165;-78
2022/08/31 02:35:17;;;;;;;0.40;0.40;;;;;;;11.12;62.82;101742.88;5125782;28;20016;-78
2022/08/31 02:37:43;;;;;;;0.30;0.30;;;;;;;11.13;62.83;101747.25;5125862;28;20024;-78
2022/08/31 02:40:17;;;;;;;0.40;0.40;;;;;;;11.08;62.92;101741.13;5125818;28;20028;-78
2022/08/31 02:42:43;;;;;;;0.40;0.40;;;;;;;11.13;62.75;101748.09;5125888;28;20077;-77
2022/08/31 02:45:08;;;;;;;0.40;0.40;;;;;;;11.14;62.94;101746.38;5125627;28;20044;-77
2022/08/31 02:47:34;;;;;;;0.40;0.40;;;;;;;11.14;62.83;101742.06;5125368;28;20114;-76
2022/08/31 02:50:04;;;;;;;0.40;0.40;;;;;;;11.12;62.59;101733.38;5125225;28;20065;-77
2022/08/31 02:52:30;;;;;;;0.40;0.40;;;;;;;11.10;62.55;101745.47;5125312;28;20237;-76
2022/08/31 02:54:55;;;;;;;0.40;0.40;;;;;;;11.03;62.33;101728.97;5125128;28;20027;-76
2022/08/31 02:57:21;;;;;;;0.40;0.40;;;;;;;11.07;62.43;101742.84;5125664;28;20027;-77
2022/08/31 02:59:47;;;;;;;0.40;0.40;;;;;;;11.02;62.53;101731.53;5128783;28;20020;-77
2022/08/31 03:02:13;;;;;;;0.40;0.40;;;;;;;11.01;62.30;101735.84;5129054;28;20026;-78
2022/08/31 03:04:39;;;;;;;0.40;0.40;;;;;;;10.95;62.47;101735.78;5128848;28;20027;-77
2022/08/31 03:07:05;;;;;;;0.40;0.40;;;;;;;10.93;62.30;101734.88;5128793;28;20047;-78
2022/08/31 03:09:31;;;;;;;0.40;0.40;;;;;;;10.89;62.12;101736.56;5110433;28;20069;-77
2022/08/31 03:11:57;;;;;;;0.40;0.40;;;;;;;10.83;62.17;101730.47;5110338;28;20019;-77
2022/08/31 03:14:23;;;;;;;0.40;0.40;;;;;;;10.83;62.32;101744.28;5128807;28;20023;-77
2022/08/31 03:16:48;;;;;;;0.40;0.40;;;;;;;10.82;62.11;101747.75;5128869;28;20032;-73
2022/08/31 03:19:13;;;;;;;0.38;0.38;;;;;;;10.81;62.13;101746.03;5128689;28;20020;-76
2022/08/31 03:21:39;;;;;;;0.93;0.93;;;;;;;10.77;62.36;101741.63;5128563;28;20080;-76
2022/08/31 03:24:04;;;;;;;0.38;0.38;;;;;;;10.79;62.37;101745.13;5128049;28;20438;-77
2022/08/31 03:26:30;;;;;;;0.40;0.40;;;;;;;10.80;62.80;101746.00;5128004;28;20114;-76
2022/08/31 03:28:55;;;;;;;0.40;0.40;;;;;;;10.81;62.73;101750.34;5108830;28;20026;-77
2022/08/31 03:31:22;;;;;;;0.30;0.30;;;;;;;10.80;62.86;101752.06;5127594;28;20043;-78
2022/08/31 03:33:47;;;;;;;0.40;0.40;;;;;;;10.78;62.97;101748.59;5128251;28;20028;-77
2022/08/31 03:36:14;;;;;;;0.40;0.40;;;;;;;10.76;62.85;101752.88;5110126;28;20026;-77
2022/08/31 03:38:40;;;;;;;0.40;0.40;;;;;;;10.80;63.06;101756.41;5128024;28;20023;-77
2022/08/31 03:41:05;;;;;;;0.40;0.40;;;;;;;10.82;63.23;101758.16;5128310;28;20028;-78
2022/08/31 03:43:31;;;;;;;0.40;0.40;;;;;;;10.77;62.97;101746.81;5109812;28;20066;-77
2022/08/31 03:45:56;;;;;;;0.30;0.30;;;;;;;10.78;63.17;101746.00;5127689;28;20044;-78
2022/08/31 03:48:22;;;;;;;0.40;0.40;;;;;;;10.81;63.25;101748.63;5128162;28;20027;-78
2022/08/31 03:50:47;;;;;;;0.50;0.50;;;;;;;10.83;63.51;101759.03;5127929;28;20023;-77
2022/08/31 03:53:13;;;;;;;0.40;0.40;;;;;;;10.80;63.42;101752.06;5127897;28;20026;-78
2022/08/31 03:55:40;;;;;;;0.30;0.30;;;;;;;10.84;63.54;101769.44;5109324;28;20028;-77
2022/08/31 03:58:06;;;;;;;0.30;0.30;;;;;;;10.80;63.68;101752.06;5127844;28;20031;-77
2022/08/31 04:00:32;;;;;;;0.40;0.40;;;;;;;10.78;63.76;101758.97;5127716;28;20047;-77
2022/08/31 04:03:00;;;;;;;0.30;0.30;;;;;;;10.77;63.80;101749.41;5109173;28;20019;-72
2022/08/31 04:05:27;;;;;;;0.30;0.30;;;;;;;10.84;63.96;101758.16;5127807;28;20035;-72
2022/08/31 04:07:53;;;;;;;0.40;0.40;;;;;;;10.83;63.56;101757.28;5109155;28;20026;-75
2022/08/31 04:10:18;;;;;;;0.30;0.30;;;;;;;10.84;63.60;101759.06;5127121;28;20020;-75
2022/08/31 04:12:43;;;;;;;0.30;0.30;;;;;;;10.91;63.68;101766.06;5127640;28;20475;-76
2022/08/31 04:15:10;;;;;;;0.40;0.40;;;;;;;10.93;63.98;101766.06;5127380;28;20411;-76
2022/08/31 04:17:36;;;;;;;0.40;0.40;;;;;;;10.94;63.87;101764.34;5127427;28;20027;-76
2022/08/31 04:20:03;;;;;;;0.40;0.40;;;;;;;10.93;64.00;101762.63;5127430;28;20034;-76
2022/08/31 04:22:28;;;;;;;0.40;0.40;;;;;;;10.92;64.04;101761.75;5127354;28;20034;-75
2022/08/31 04:24:53;;;;;;;0.40;0.40;;;;;;;10.86;64.20;101762.53;5127228;28;20457;-77
2022/08/31 04:27:19;;;;;;;0.40;0.40;;;;;;;10.93;64.01;101762.63;5127276;28;20030;-73
2022/08/31 04:29:44;;;;;;;0.40;0.40;;;;;;;10.93;63.88;101768.66;5127237;28;20027;-73
2022/08/31 04:32:09;;;;;;;0.40;0.40;;;;;;;10.96;63.95;101770.44;5127150;28;20061;-75
2022/08/31 04:34:35;;;;;;;0.40;0.40;;;;;;;10.97;63.67;101769.59;5126638;28;20015;-75
2022/08/31 04:37:00;;;;;;;0.40;0.40;;;;;;;11.01;63.96;101773.94;5126986;28;20055;-75
2022/08/31 04:39:26;;;;;;;0.40;0.40;;;;;;;11.02;64.01;101767.91;5126843;28;20102;-76
2022/08/31 04:41:51;;;;;;;0.40;0.40;;;;;;;10.94;63.95;101764.34;5127178;28;20513;-76
2022/08/31 04:44:16;;;;;;;0.40;0.40;;;;;;;10.98;64.09;101763.53;5126939;28;20504;-76
2022/08/31 04:46:42;;;;;;;0.40;0.40;;;;;;;11.06;63.95;101774.88;5126710;28;20072;-75
2022/08/31 04:49:09;;;;;;;0.30;0.30;;;;;;;11.07;64.15;101768.81;5126783;28;20027;-75
2022/08/31 04:51:37;;;;;;;0.40;0.40;;;;;;;11.10;64.48;101771.47;5126960;28;20024;-76
2022/08/31 04:54:06;;;;;;;0.40;0.40;;;;;;;11.15;64.75;101775.00;5126631;28;20023;-77
2022/08/31 04:56:33;;;;;;;5.05;2.38;;;;;;;11.28;64.84;101780.31;5127035;28;20024;-75
2022/08/31 04:59:05;;;;;;;0.40;0.40;;;;;;;11.56;65.53;101772.81;5126839;28;20046;-76
2022/08/31 05:01:33;;;;;;;0.40;0.40;;;;;;;11.86;65.49;101784.34;5109070;28;20023;-76
2022/08/31 05:03:59;;;;;;;0.30;0.30;;;;;;;11.92;65.10;101783.53;5126406;28;20027;-77
2022/08/31 05:06:28;;;;;;;0.30;0.30;;;;;;;11.87;64.92;101783.47;5126948;28;20024;-75
2022/08/31 05:08:56;;;;;;;0.40;0.40;;;;;;;11.83;64.90;101778.25;5108105;28;20020;-75
2022/08/31 05:11:22;;;;;;;0.40;0.40;;;;;;;11.81;65.03;101783.44;5126761;28;20026;-75
2022/08/31 05:13:48;;;;;;;0.40;0.40;;;;;;;11.85;65.17;101787.78;5126320;28;20382;-75
2022/08/31 05:16:18;;;;;;;0.35;0.35;;;;;;;11.80;65.08;101786.03;5126460;28;20069;-77
2022/08/31 05:18:45;;;;;;;0.70;0.70;;;;;;;11.76;65.42;101787.72;5126563;28;20024;-75
2022/08/31 05:21:12;;;;;;;0.30;0.30;;;;;;;11.74;65.33;101785.09;5125888;28;20027;-75
2022/08/31 05:23:38;;;;;;;0.30;0.30;;;;;;;11.73;65.28;101791.16;5126240;28;20027;-75
2022/08/31 05:26:04;;;;;;;0.30;0.30;;;;;;;11.78;65.19;101793.81;5126189;28;20210;-75
2022/08/31 05:28:32;;;;;;;0.30;0.30;;;;;;;11.78;65.03;101786.88;5126283;28;20023;-73
2022/08/31 05:30:57;;;;;;;0.40;0.40;;;;;;;11.84;65.00;101799.06;5126097;28;20015;-74
2022/08/31 05:33:23;;;;;;;0.40;0.40;;;;;;;11.79;65.21;101792.94;5126028;28;20024;-73
2022/08/31 05:35:48;;;;;;;1.92;1.77;;;;;;;12.02;65.94;101798.38;5126048;28;20532;-71
2022/08/31 05:38:13;;;;;;;0.30;0.30;;;;;;;12.55;66.47;101797.88;5125886;28;20043;-68
2022/08/31 05:40:39;;;;;;;0.30;0.30;;;;;;;12.85;65.85;101793.69;5125939;28;20026;-69
2022/08/31 05:43:04;;;;;;;0.30;0.30;;;;;;;13.03;65.21;101807.66;5125912;28;20471;-66
2022/08/31 05:45:30;;;;;;;0.40;0.40;;;;;;;13.12;65.16;101794.66;5126019;28;20038;-67
2022/08/31 05:47:55;;;;;;;0.30;0.30;;;;;;;13.44;65.42;101789.50;5126247;28;20020;-67
2022/08/31 05:50:20;;;;;;;0.50;0.50;;;;;;;13.93;65.47;101793.91;5125976;28;20051;-69
2022/08/31 05:52:46;;;;;;;0.30;0.30;;;;;;;14.29;63.99;101795.63;5125919;28;20023;-69
2022/08/31 05:55:11;;;;;;;0.30;0.30;;;;;;;14.40;63.60;101795.63;5125729;28;20016;-68
2022/08/31 05:57:39;;;;;;;1.55;1.45;;;;;;;14.53;63.44;101802.56;5125941;28;20128;-68
2022/08/31 06:00:06;;;;;;;0.30;0.30;;;;;;;14.88;63.35;101803.34;5107529;28;20023;-68
2022/08/31 06:02:32;;;;;;;0.30;0.30;;;;;;;15.09;62.08;101812.84;5107455;28;20034;-68
2022/08/31 06:04:58;;;;;;;0.30;0.30;;;;;;;15.11;62.04;101816.31;5125390;28;20027;-68
2022/08/31 06:07:24;;;;;;;0.30;0.30;;;;;;;15.03;61.31;101815.47;5107353;28;20019;-68
2022/08/31 06:09:49;;;;;;;0.30;0.30;;;;;;;14.82;61.21;101809.50;5125318;28;20028;-68
2022/08/31 06:12:16;;;;;;;0.30;0.30;;;;;;;14.69;61.55;101816.47;5125726;28;20027;-68
2022/08/31 06:14:41;;;;;;;0.30;0.30;;;;;;;14.61;60.81;101805.16;5125775;28;20047;-68
2022/08/31 06:17:07;;;;;;;0.30;0.30;;;;;;;14.53;60.71;101815.63;5125883;28;20027;-68
2022/08/31 06:19:32;;;;;;;0.30;0.30;;;;;;;14.39;61.15;101810.44;5125746;28;20027;-68
2022/08/31 06:21:57;;;;;;;0.30;0.30;;;;;;;14.28;60.77;101813.03;5125771;28;20443;-68
2022/08/31 06:24:23;;;;;;;0.30;0.30;;;;;;;14.15;61.09;101814.81;5125428;28;20023;-68
2022/08/31 06:26:54;;;;;;;0.30;0.30;;;;;;;14.17;61.11;101818.28;5125714;28;20023;-68
2022/08/31 06:29:20;;;;;;;0.30;0.30;;;;;;;14.18;60.83;101819.16;5125800;28;20114;-68
2022/08/31 06:31:46;;;;;;;0.30;0.30;;;;;;;14.17;61.11;101815.66;5126503;28;20352;-68
2022/08/31 06:34:12;;;;;;;0.63;0.63;;;;;;;14.15;60.77;101822.66;5129540;28;20029;-68
2022/08/31 06:36:38;;;;;;;0.30;0.30;;;;;;;14.17;60.89;101820.03;5129693;28;20020;-67
2022/08/31 06:39:03;;;;;;;0.30;0.30;;;;;;;14.16;60.99;101823.50;5129307;28;20029;-67
2022/08/31 06:41:35;;;;;;;0.52;0.52;;;;;;;14.22;61.03;101823.50;5129506;28;20027;-67
2022/08/31 06:44:01;;;;;;;0.40;0.40;;;;;;;14.24;61.13;101821.78;5129351;28;20031;-67
2022/08/31 06:46:28;;;;;;;0.30;0.30;;;;;;;14.72;62.31;101826.03;5129463;28;20047;-67
2022/08/31 06:48:57;;;;;;;0.30;0.30;;;;;;;15.58;62.23;101817.78;5129279;28;20035;-67
2022/08/31 06:51:23;;;;;;;0.30;0.30;;;;;;;16.45;61.91;101816.22;5129317;28;20051;-66
2022/08/31 06:53:49;;;;;;;2.17;1.17;;;;;;;17.46;60.86;101814.09;5129071;28;20023;-67
2022/08/31 06:56:18;;;;;;;0.30;0.30;;;;;;;17.86;59.53;101819.66;5129342;28;20133;-67
2022/08/31 06:58:43;;;;;;;0.20;0.20;;;;;;;18.20;59.33;101811.22;5129343;28;20026;-67
2022/08/31 07:01:13;;;;;;;0.20;0.20;;;;;;;18.70;58.78;101821.69;5129093;28;20118;-67
2022/08/31 07:03:42;;;;;;;0.20;0.20;;;;;;;19.44;58.61;101825.41;5129065;28;20028;-67
2022/08/31 07:06:30;;;;;;;0.20;0.20;;;;;;;20.01;54.44;101828.44;5128917;28;20016;-67
2022/08/31 07:08:59;;;;;;;0.20;0.20;;;;;;;19.97;53.08;101832.03;5128545;28;20027;-67
2022/08/31 07:11:33;;;;;;;0.30;0.30;;;;;;;19.70;52.88;101829.19;5110567;28;20019;-67
2022/08/31 07:14:00;;;;;;;0.30;0.30;;;;;;;19.52;54.18;101836.59;5128938;28;20023;-67
2022/08/31 07:16:27;;;;;;;0.20;0.20;;;;;;;19.73;53.60;101823.81;5128963;28;20023;-68
2022/08/31 07:18:54;;;;;;;0.20;0.20;;;;;;;20.09;52.75;101830.91;5128879;28;20024;-67
2022/08/31 07:21:26;;;;;;;0.20;0.20;;;;;;;19.73;51.34;101834.38;5129114;28;20035;-70
2022/08/31 07:23:53;;;;;;;0.30;0.30;;;;;;;19.36;51.85;101825.56;5128596;28;20015;-67
2022/08/31 07:26:26;;;;;;;0.20;0.20;;;;;;;19.20;51.35;101825.91;5128453;28;20054;-66
2022/08/31 07:28:53;;;;;;;0.20;0.20;;;;;;;19.34;51.40;101823.88;5127134;28;20031;-68
2022/08/31 07:31:24;;;;;;;0.20;0.20;;;;;;;19.04;50.72;101830.59;5127549;28;20034;-68
2022/08/31 07:33:57;;;;;;;0.30;0.30;;;;;;;18.55;50.70;101837.72;5128533;28;20024;-67
2022/08/31 07:36:24;;;;;;;0.30;0.30;;;;;;;17.93;51.44;101831.78;5128642;28;20016;-67
2022/08/31 07:42:17;;;;;;;0.30;0.30;;;;;;;17.02;52.32;101838.31;5128584;28;20391;-67
2022/08/31 07:44:23;;;;;;;0.22;0.22;;;;;;;16.78;52.92;101837.72;5121694;28;20035;-68
2022/08/31 07:46:53;;;;;;;0.30;0.30;;;;;;;16.91;53.75;101848.94;5128314;28;20043;-67
2022/08/31 07:49:20;;;;;;;0.28;0.28;;;;;;;17.54;54.30;101843.75;5128439;28;20463;-67
2022/08/31 07:51:49;;;;;;;0.20;0.20;;;;;;;18.60;54.00;101841.16;5128258;28;20459;-67
2022/08/31 07:54:21;;;;;;;0.20;0.20;;;;;;;19.54;52.82;101842.72;5128280;28;20028;-67
2022/08/31 07:56:48;;;;;;;0.30;0.30;;;;;;;20.64;51.92;101842.63;5128170;28;20020;-67
2022/08/31 07:59:15;;;;;;;0.20;0.20;;;;;;;21.23;50.50;101848.00;5128127;28;20028;-67
2022/08/31 08:01:41;;;;;;;1.45;0.82;;;;;;;21.49;50.63;101839.25;5128157;28;20104;-67
2022/08/31 08:04:08;;;;;;;0.20;0.20;;;;;;;21.78;49.43;101841.91;5127762;28;20057;-67
2022/08/31 08:06:33;;;;;;;0.20;0.20;;;;;;;22.25;48.80;101835.06;5127953;28;20039;-67
2022/08/31 08:09:05;;;;;;;0.28;0.28;;;;;;;22.68;47.24;101843.28;5127825;28;20027;-67
2022/08/31 08:11:32;;;;;;;0.20;0.20;;;;;;;22.56;47.23;101847.19;5127966;28;20024;-67
2022/08/31 08:13:57;;;;;;;0.20;0.20;;;;;;;22.57;47.49;101840.13;5127731;28;20039;-67
2022/08/31 08:16:24;;;;;;;0.20;0.20;;;;;;;22.86;47.42;101841.69;5127609;28;20019;-67
2022/08/31 08:18:49;;;;;;;0.15;0.15;;;;;;;23.23;45.89;101834.13;5127646;28;20024;-68
2022/08/31 08:21:15;;;;;;;0.20;0.20;;;;;;;23.35;45.21;101830.13;5127550;28;20030;-67
2022/08/31 08:23:40;;;;;;;0.35;0.35;;;;;;;23.67;44.98;101829.78;5127464;28;20023;-67
2022/08/31 08:26:08;;;;;;;0.20;0.20;;;;;;;24.10;45.25;101831.53;5127150;28;20026;-67
2022/08/31 08:28:34;;;;;;;0.20;0.20;;;;;;;24.82;43.91;101833.72;5127479;28;20023;-68
2022/08/31 08:31:00;;;;;;;0.20;0.20;;;;;;;24.73;39.81;101835.84;5127180;28;20026;-66
2022/08/31 08:33:29;;;;;;;0.20;0.20;;;;;;;24.42;41.07;101841.69;5127189;28;20497;-67
2022/08/31 08:35:57;;;;;;;0.20;0.20;;;;;;;24.44;40.17;101842.50;5127609;28;20043;-68
2022/08/31 08:38:30;;;;;;;0.20;0.20;;;;;;;24.31;40.67;101836.88;5127223;28;20024;-67
2022/08/31 08:40:58;;;;;;;0.20;0.20;;;;;;;24.44;40.95;101838.03;5127104;28;20019;-68
2022/08/31 08:43:29;;;;;;;0.20;0.20;;;;;;;24.89;40.05;101837.81;5127116;28;20034;-67
2022/08/31 08:45:56;;;;;;;0.20;0.20;;;;;;;24.97;39.65;101835.66;5126784;28;20032;-68
2022/08/31 08:48:26;;;;;;;0.10;0.10;;;;;;;24.57;38.33;101833.03;5108658;28;20031;-68
2022/08/31 08:50:52;;;;;;;0.20;0.20;;;;;;;24.11;37.95;101831.47;5126996;28;20032;-68
2022/08/31 08:53:22;;;;;;;0.20;0.20;;;;;;;24.17;39.08;101833.00;5126878;28;20028;-67
2022/08/31 08:55:48;;;;;;;0.20;0.20;;;;;;;24.65;38.37;101837.16;5125819;28;20028;-67
2022/08/31 08:58:14;;;;;;;0.20;0.20;;;;;;;25.06;38.15;101849.47;5126775;28;20440;-67
2022/08/31 09:00:49;;;;;;;0.20;0.20;;;;;;;25.29;37.21;101842.19;5127039;28;20024;-67
2022/08/31 09:03:41;;;;;;;0.13;0.13;;;;;;;25.58;35.38;101832.78;5126784;28;20463;-68
2022/08/31 09:06:13;;;;;;;;;;;;;;;25.41;35.75;101838.94;5127230;28;20039;-68
2022/08/31 09:09:17;;;;;;;0.20;0.20;;;;;;;25.39;35.68;101840.81;5126762;28;19979;-68
2022/08/31 09:12:10;;;;;;;0.17;0.17;;;;;;;25.38;34.83;101845.25;5126822;28;20012;-68
2022/08/31 09:14:58;;;;;;;0.20;0.20;;;;;;;25.46;36.14;101828.91;5126617;28;20068;-67
2022/08/31 09:17:42;;;;;;;0.20;0.20;;;;;;;25.62;36.37;101833.53;5126550;28;20044;-67
2022/08/31 09:20:11;;;;;;;0.10;0.10;;;;;;;26.02;34.21;101833.31;5126842;28;20023;-68
2022/08/31 09:22:50;;;;;;;0.20;0.20;;;;;;;25.55;32.71;101832.94;5126497;28;20043;-65
2022/08/31 09:25:19;;;;;;;0.20;0.20;;;;;;;25.36;33.25;101843.59;5126202;28;20030;-67
2022/08/31 09:27:56;;;;;;;0.17;0.17;;;;;;;25.04;33.53;101830.06;5126384;28;20023;-67
2022/08/31 09:30:34;;;;;;;0.20;0.20;;;;;;;25.24;33.27;101822.00;5126372;28;20087;-67
2022/08/31 09:33:00;;;;;;;0.10;0.10;;;;;;;25.40;33.42;101821.25;5107528;28;20035;-68
2022/08/31 09:35:41;;;;;;;0.20;0.20;;;;;;;25.47;33.30;101830.66;5126357;28;20019;-66
2022/08/31 09:38:36;;;;;;;0.20;0.20;;;;;;;26.30;33.35;101818.53;5126432;28;20015;-67
2022/08/31 09:41:07;;;;;;;0.10;0.10;;;;;;;27.00;32.63;101826.41;5126085;28;20099;-68
2022/08/31 09:43:37;;;;;;;0.20;0.20;;;;;;;27.31;33.02;101827.34;5126256;28;20033;-67
2022/08/31 09:46:06;;;;;;;0.10;0.10;;;;;;;27.76;30.53;101823.94;5125904;28;20551;-65
2022/08/31 09:48:50;;;;;;;0.15;0.15;;;;;;;27.26;30.09;101818.75;5126244;28;20035;-67
2022/08/31 09:51:28;;;;;;;0.10;0.10;;;;;;;26.81;29.66;101827.41;5126175;28;20020;-67
2022/08/31 09:57:09;;;;;;;0.20;0.20;;;;;;;23.44;31.48;101822.75;5126121;28;20034;-67
2022/08/31 09:59:40;;;;;;;0.10;0.10;;;;;;;22.21;32.98;101807.84;5126020;28;20019;-68
2022/08/31 10:02:11;;;;;;;0.20;0.20;;;;;;;21.30;33.70;101828.41;5126167;28;20383;-67
2022/08/31 10:04:53;;;;;;;0.20;0.20;;;;;;;20.94;34.99;101824.22;5125995;28;20149;-67
2022/08/31 10:07:27;;;;;;;0.20;0.20;;;;;;;20.59;35.65;101823.44;5128089;28;20177;-67
2022/08/31 10:10:02;;;;;;;0.20;0.20;;;;;;;20.46;36.45;101826.41;5130429;28;20016;-67
2022/08/31 10:12:50;;;;;;;0.20;0.20;;;;;;;20.50;36.63;101825.41;5130418;28;20031;-67
2022/08/31 10:15:25;;;;;;;0.77;0.70;;;;;;;21.37;36.09;101816.75;5130095;28;20092;-68
2022/08/31 10:17:56;;;;;;;0.20;0.20;;;;;;;21.55;35.24;101819.69;5129932;28;20599;-68
2022/08/31 10:20:29;;;;;;;0.20;0.20;;;;;;;21.15;36.40;101819.19;5130088;28;20113;-68
2022/08/31 10:23:05;;;;;;;0.20;0.20;;;;;;;20.85;36.43;101821.78;5129924;28;20029;-68
2022/08/31 10:25:37;;;;;;;0.20;0.20;;;;;;;20.35;37.03;101823.19;5129450;28;20019;-68
2022/08/31 10:28:14;;;;;;;0.30;0.30;;;;;;;19.81;37.82;101818.38;5130041;28;20387;-68
2022/08/31 10:31:01;;;;;;;0.20;0.20;;;;;;;19.50;38.57;101827.03;5111742;28;20032;-68
2022/08/31 10:36:35;;;;;;;0.20;0.20;;;;;;;19.16;39.70;101807.59;5130115;28;20034;-67
2022/08/31 10:39:01;;;;;;;0.20;0.20;;;;;;;19.15;40.06;101817.25;5129712;28;20471;-67
2022/08/31 10:41:42;;;;;;;0.30;0.30;;;;;;;19.30;39.58;101816.03;5129358;28;20191;-67
2022/08/31 10:44:35;;;;;;;0.30;0.30;;;;;;;19.36;38.92;101812.41;5129393;28;20495;-68
2022/08/31 10:47:04;;;;;;;0.20;0.20;;;;;;;19.36;38.80;101798.38;5129370;28;20047;-67
2022/08/31 10:49:34;;;;;;;0.20;0.20;;;;;;;19.40;38.58;101805.31;5129374;28;20379;-67
2022/08/31 10:52:31;;;;;;;1.00;0.95;;;;;;;19.52;38.67;101810.28;5129332;28;20027;-67
2022/08/31 10:55:08;;;;;;;0.20;0.20;;;;;;;19.42;38.39;101803.50;5128358;28;20521;-66
2022/08/31 10:58:03;;;;;;;0.30;0.30;;;;;;;20.29;38.90;101800.47;5129393;28;20285;-66
2022/08/31 11:00:44;;;;;;;0.20;0.20;;;;;;;21.86;37.27;101789.66;5093932;28;20084;-66
2022/08/31 11:03:31;;;;;;;0.20;0.20;;;;;;;22.28;35.28;101792.63;5129216;28;20069;-67
2022/08/31 11:06:15;;;;;;;0.20;0.20;;;;;;;21.73;35.21;101789.16;5129097;28;20024;-66
2022/08/31 11:08:54;;;;;;;0.20;0.20;;;;;;;21.05;35.37;101806.25;5129162;28;20112;-67
2022/08/31 11:11:42;;;;;;;0.20;0.20;;;;;;;20.67;36.87;101795.06;5128788;28;20031;-67
2022/08/31 11:14:44;;;;;;;0.20;0.20;;;;;;;22.01;35.98;101785.59;5128854;28;20011;-67
2022/08/31 11:17:37;;;;;;;0.20;0.20;;;;;;;23.55;32.16;101775.47;5111005;28;20023;-67
2022/08/31 11:20:30;;;;;;;0.20;0.20;;;;;;;24.26;30.99;101778.69;5109716;28;20077;-67
2022/08/31 11:23:07;;;;;;;0.20;0.20;;;;;;;23.72;32.50;101771.25;5128938;28;20039;-67
2022/08/31 11:25:46;;;;;;;0.20;0.20;;;;;;;23.21;33.07;101777.69;5128412;28;20034;-68
2022/08/31 11:28:22;;;;;;;0.17;0.17;;;;;;;22.51;34.03;101775.03;5127607;28;20100;-67
2022/08/31 11:30:48;;;;;;;0.30;0.30;;;;;;;21.82;34.24;101773.94;5128129;28;20020;-68
2022/08/31 11:33:18;;;;;;;0.20;0.20;;;;;;;21.18;35.21;101771.56;5128485;28;20051;-68
2022/08/31 11:38:39;;;;;;;0.20;0.20;;;;;;;20.86;36.17;101779.56;5128587;28;20060;-67
2022/08/31 11:41:04;;;;;;;0.20;0.20;;;;;;;20.79;36.30;101785.91;5128281;28;20019;-68
2022/08/31 11:43:30;;;;;;;0.20;0.20;;;;;;;20.53;36.69;101771.69;5128449;28;20050;-66
2022/08/31 11:46:00;;;;;;;0.20;0.20;;;;;;;20.29;36.72;101772.34;5128134;28;20040;-67
2022/08/31 11:48:50;;;;;;;0.20;0.20;;;;;;;20.12;36.79;101775.44;5128383;28;20095;-67
2022/08/31 11:51:36;;;;;;;0.20;0.20;;;;;;;19.97;37.00;101770.56;5128240;28;20020;-67